Time;durP1;ratioP1;P1;durP2;ratioP2;P2;SDS_P1;SDS_P2;PMS_P1;PMS_P2;Temp;Humidity;BMP_temperature;BMP_pressure;BME280_temperature;BME280_humidity;BME280_pressure;Samples;Min_cycle;Max_cycle;Signal;HPM_P1;HPM_P2
2023/10/02 00:00:30;;;;;;;24.85;17.92;;;17.40;99.90;;;;;;5069501;28;20059;-76
2023/10/02 00:02:56;;;;;;;26.23;18.27;;;17.40;99.90;;;;;;5080092;28;20054;-76
2023/10/02 00:05:40;;;;;;;25.85;18.27;;;17.50;99.90;;;;;;5073977;28;20049;-76
2023/10/02 00:08:06;;;;;;;23.75;16.92;;;17.50;99.90;;;;;;5086741;28;20388;-76
2023/10/02 00:10:31;;;;;;;27.30;17.77;;;17.50;99.90;;;;;;5083265;28;20097;-76
2023/10/02 00:13:00;;;;;;;27.38;17.63;;;17.50;99.90;;;;;;5073612;28;20120;-76
2023/10/02 00:15:26;;;;;;;27.55;17.67;;;17.50;99.90;;;;;;5079116;28;20048;-76
2023/10/02 00:17:51;;;;;;;26.15;18.83;;;17.50;99.90;;;;;;5073157;28;20048;-76
2023/10/02 00:20:23;;;;;;;27.83;18.23;;;17.50;99.90;;;;;;5076011;28;20100;-76
2023/10/02 00:22:52;;;;;;;25.13;18.63;;;17.50;99.90;;;;;;5104050;28;20048;-76
2023/10/02 00:25:20;;;;;;;27.05;18.30;;;17.50;99.90;;;;;;5072160;28;20557;-76
2023/10/02 00:27:54;;;;;;;24.25;16.88;;;17.50;99.90;;;;;;5078416;28;20032;-76
2023/10/02 00:30:38;;;;;;;25.05;17.75;;;17.50;99.90;;;;;;5072948;28;20097;-76
2023/10/02 00:33:08;;;;;;;24.23;16.60;;;17.50;99.90;;;;;;5075614;28;20538;-76
2023/10/02 00:35:50;;;;;;;25.85;17.77;;;17.50;99.90;;;;;;5083106;28;20537;-76
2023/10/02 00:38:16;;;;;;;27.13;17.08;;;17.50;99.90;;;;;;5092939;28;20445;-76
2023/10/02 00:40:41;;;;;;;26.02;17.33;;;17.50;99.90;;;;;;5073111;28;20044;-76
2023/10/02 00:45:58;;;;;;;25.65;16.40;;;17.50;99.90;;;;;;5078528;28;20528;-76
2023/10/02 00:48:33;;;;;;;26.35;18.13;;;17.40;99.90;;;;;;5093516;28;22015;-76
2023/10/02 00:51:05;;;;;;;25.80;17.67;;;17.40;99.90;;;;;;5072634;28;20058;-76
2023/10/02 00:53:45;;;;;;;24.23;17.38;;;17.40;99.90;;;;;;5073445;28;20056;-76
2023/10/02 00:56:27;;;;;;;25.58;17.77;;;17.40;99.90;;;;;;5094401;28;20036;-76
2023/10/02 00:58:58;;;;;;;25.70;18.38;;;17.40;99.90;;;;;;5073997;28;20478;-76
2023/10/02 01:01:31;;;;;;;28.92;18.17;;;17.40;99.90;;;;;;5078769;28;20162;-76
2023/10/02 01:04:11;;;;;;;26.00;18.67;;;17.40;99.90;;;;;;5074543;28;20096;-76
2023/10/02 01:10:07;;;;;;;26.90;19.38;;;17.40;99.90;;;;;;5051207;28;20040;-76
2023/10/02 01:12:38;;;;;;;25.20;18.08;;;17.40;99.90;;;;;;5087053;28;20460;-76
2023/10/02 01:15:11;;;;;;;25.20;17.30;;;17.50;99.90;;;;;;5071857;28;20036;-76
2023/10/02 01:17:39;;;;;;;26.75;18.23;;;17.40;99.90;;;;;;5073193;28;20056;-75
2023/10/02 01:20:12;;;;;;;25.38;18.23;;;17.40;99.90;;;;;;5099366;28;20092;-76
2023/10/02 01:22:44;;;;;;;25.88;17.67;;;17.40;99.90;;;;;;5057891;28;20445;-76
2023/10/02 01:25:13;;;;;;;25.17;18.25;;;17.40;99.90;;;;;;5070798;28;20048;-76
2023/10/02 01:27:47;;;;;;;24.33;17.77;;;17.40;99.90;;;;;;5076107;28;20040;-76
2023/10/02 01:30:18;;;;;;;26.23;18.00;;;17.40;99.90;;;;;;5090506;28;20688;-76
2023/10/02 01:33:06;;;;;;;24.90;17.45;;;17.40;99.90;;;;;;5063400;28;20043;-76
2023/10/02 01:35:40;;;;;;;25.30;19.05;;;17.40;99.90;;;;;;5081277;28;20114;-76
2023/10/02 01:38:15;;;;;;;25.20;18.67;;;17.40;99.90;;;;;;5074608;28;20459;-76
2023/10/02 01:40:46;;;;;;;25.17;17.75;;;17.30;99.90;;;;;;5098926;28;20206;-76
2023/10/02 01:43:13;;;;;;;26.88;18.85;;;17.30;99.90;;;;;;5075936;28;20160;-76
2023/10/02 01:45:48;;;;;;;26.02;18.23;;;17.30;99.90;;;;;;5091461;28;20044;-76
2023/10/02 01:51:20;;;;;;;24.70;17.15;;;17.20;99.90;;;;;;5074702;28;20051;-76
2023/10/02 01:53:48;;;;;;;27.60;18.35;;;17.10;99.90;;;;;;5072816;28;20110;-77
2023/10/02 01:56:15;;;;;;;25.35;17.67;;;17.10;99.90;;;;;;5080350;28;20051;-76
2023/10/02 01:58:42;;;;;;;23.70;17.63;;;17.10;99.90;;;;;;5087196;28;20039;-76
2023/10/02 02:01:11;;;;;;;24.40;16.95;;;17.00;99.90;;;;;;5078543;28;20036;-76
2023/10/02 02:03:39;;;;;;;25.52;18.10;;;17.00;99.90;;;;;;5087389;28;20067;-76
2023/10/02 02:06:11;;;;;;;23.40;17.20;;;16.90;99.90;;;;;;5103811;28;20119;-76
2023/10/02 02:08:38;;;;;;;22.60;16.63;;;16.90;99.90;;;;;;5076443;28;20563;-76
2023/10/02 02:11:18;;;;;;;22.77;16.85;;;16.90;99.90;;;;;;5077830;28;20067;-76
2023/10/02 02:13:44;;;;;;;26.77;18.55;;;16.80;99.90;;;;;;5099934;28;20487;-76
2023/10/02 02:16:21;;;;;;;24.10;17.90;;;16.80;99.90;;;;;;5096954;28;20422;-76
2023/10/02 02:18:54;;;;;;;25.05;18.25;;;16.70;99.90;;;;;;5070946;28;20305;-76
2023/10/02 02:21:21;;;;;;;26.70;17.85;;;16.70;99.90;;;;;;5101145;28;20043;-76
2023/10/02 02:23:48;;;;;;;25.92;18.65;;;16.70;99.90;;;;;;5074131;28;20369;-76
2023/10/02 02:26:21;;;;;;;26.88;18.52;;;16.70;99.90;;;;;;5098471;28;20039;-76
2023/10/02 02:28:51;;;;;;;26.75;18.75;;;16.70;99.90;;;;;;5076346;28;20040;-76
2023/10/02 02:31:39;;;;;;;26.60;17.83;;;16.70;99.90;;;;;;5062879;28;20482;-76
2023/10/02 02:34:14;;;;;;;27.80;20.05;;;16.70;99.90;;;;;;5091429;28;20044;-76
2023/10/02 02:36:42;;;;;;;23.60;18.02;;;16.70;99.90;;;;;;5091272;28;20158;-76
2023/10/02 02:39:17;;;;;;;;;;;16.60;99.90;;;;;;5079509;28;20028;-76
2023/10/02 02:41:43;;;;;;;25.02;18.25;;;16.60;99.90;;;;;;5079400;28;19927;-76
2023/10/02 02:46:57;;;;;;;25.45;18.48;;;16.50;99.90;;;;;;5079181;28;20508;-76
2023/10/02 02:49:29;;;;;;;27.20;19.02;;;16.50;99.90;;;;;;5072390;28;20039;-76
2023/10/02 02:51:58;;;;;;;23.55;17.25;;;16.50;99.90;;;;;;5071614;28;20050;-76
2023/10/02 02:54:25;;;;;;;25.50;18.42;;;16.50;99.90;;;;;;5093419;28;20101;-75
2023/10/02 02:56:57;;;;;;;25.77;18.73;;;16.50;99.90;;;;;;5079247;28;20134;-76
2023/10/02 02:59:29;;;;;;;25.92;18.92;;;16.50;99.90;;;;;;5089128;28;20044;-76
2023/10/02 03:02:08;;;;;;;28.60;19.77;;;16.50;99.90;;;;;;5072090;28;20980;-76
2023/10/02 03:04:35;;;;;;;29.13;19.42;;;16.50;99.90;;;;;;5095771;28;20052;-76
2023/10/02 03:07:08;;;;;;;24.63;17.83;;;16.60;99.90;;;;;;5076331;28;20490;-76
2023/10/02 03:09:34;;;;;;;26.17;19.00;;;16.50;99.90;;;;;;5074660;28;20123;-76
2023/10/02 03:12:00;;;;;;;25.27;18.02;;;16.60;99.90;;;;;;5075907;28;20189;-76
2023/10/02 03:14:28;;;;;;;29.77;18.80;;;16.60;99.90;;;;;;5061583;28;20051;-76
2023/10/02 03:16:54;;;;;;;27.10;19.17;;;16.60;99.90;;;;;;5086405;28;20055;-76
2023/10/02 03:19:21;;;;;;;26.23;18.35;;;16.60;99.90;;;;;;5071787;28;20044;-76
2023/10/02 03:21:47;;;;;;;;;;;16.60;99.90;;;;;;5072448;28;20044;-76
2023/10/02 03:24:18;;;;;;;26.02;18.90;;;16.50;99.90;;;;;;5104300;28;19935;-75
2023/10/02 03:26:52;;;;;;;25.77;17.95;;;16.50;99.90;;;;;;5097502;28;20475;-76
2023/10/02 03:29:22;;;;;;;27.42;18.63;;;16.50;99.90;;;;;;5096890;28;20058;-76
2023/10/02 03:31:51;;;;;;;29.92;20.20;;;16.50;99.90;;;;;;5094548;28;20042;-76
2023/10/02 03:34:30;;;;;;;28.48;19.67;;;16.50;99.90;;;;;;5088429;28;20047;-76
2023/10/02 03:36:59;;;;;;;27.45;20.40;;;16.40;99.90;;;;;;5071427;28;20533;-76
2023/10/02 03:42:25;;;;;;;29.27;20.15;;;16.40;99.90;;;;;;5068902;28;20055;-76
2023/10/02 03:44:54;;;;;;;27.13;19.83;;;16.40;99.90;;;;;;5071423;28;20072;-76
2023/10/02 03:47:24;;;;;;;30.90;21.02;;;16.40;99.90;;;;;;5097167;28;20114;-76
2023/10/02 03:49:50;;;;;;;25.60;17.50;;;16.30;99.90;;;;;;5090228;28;20040;-76
2023/10/02 03:52:17;;;;;;;26.43;18.93;;;16.30;99.90;;;;;;5091667;28;20051;-76
2023/10/02 03:54:44;;;;;;;24.67;18.40;;;16.30;99.90;;;;;;5071587;28;20135;-76
2023/10/02 03:57:11;;;;;;;31.13;20.33;;;16.20;99.90;;;;;;5078266;28;20054;-76
2023/10/02 03:59:52;;;;;;;27.67;19.15;;;16.30;99.90;;;;;;5089622;28;20044;-76
2023/10/02 04:02:30;;;;;;;27.42;19.58;;;16.20;99.90;;;;;;5072617;28;20514;-76
2023/10/02 04:04:56;;;;;;;27.67;19.35;;;16.20;99.90;;;;;;5102942;28;20081;-76
2023/10/02 04:07:24;;;;;;;25.00;19.20;;;16.20;99.90;;;;;;5074535;28;20056;-76
2023/10/02 04:09:51;;;;;;;26.38;19.55;;;16.20;99.90;;;;;;5079051;28;20104;-76
2023/10/02 04:12:18;;;;;;;26.92;19.23;;;16.20;99.90;;;;;;5077371;28;20059;-76
2023/10/02 04:14:44;;;;;;;30.70;18.98;;;16.20;99.90;;;;;;5089697;28;20048;-76
2023/10/02 04:17:20;;;;;;;26.77;19.65;;;16.10;99.90;;;;;;5100180;28;20060;-76
2023/10/02 04:19:51;;;;;;;27.73;19.50;;;16.10;99.90;;;;;;5071044;28;20052;-76
2023/10/02 04:22:25;;;;;;;26.42;19.70;;;16.10;99.90;;;;;;5084334;28;20048;-76
2023/10/02 04:24:58;;;;;;;27.88;20.17;;;16.10;99.90;;;;;;5081463;28;20105;-76
2023/10/02 04:32:39;;;;;;;26.80;19.25;;;16.10;99.90;;;;;;5091008;28;20064;-76
2023/10/02 04:35:44;;;;;;;30.10;19.65;;;16.10;99.90;;;;;;5095229;28;20036;-76
2023/10/02 04:37:52;;;;;;;29.75;19.92;;;16.10;99.90;;;;;;5068562;28;20072;-76
2023/10/02 04:40:23;;;;;;;28.55;20.02;;;16.10;99.90;;;;;;5100648;28;20098;-76
2023/10/02 04:42:58;;;;;;;32.78;20.20;;;16.10;99.90;;;;;;5071336;28;20221;-76
2023/10/02 04:45:34;;;;;;;28.95;19.80;;;16.10;99.90;;;;;;5077562;28;20075;-76
2023/10/02 04:48:00;;;;;;;29.13;20.20;;;16.10;99.90;;;;;;5056462;28;20085;-76
2023/10/02 04:55:42;;;;;;;29.98;20.40;;;16.20;99.90;;;;;;5083776;28;20058;-76
2023/10/02 04:58:17;;;;;;;26.08;19.48;;;16.20;99.90;;;;;;5086472;28;20058;-76
2023/10/02 05:01:28;;;;;;;27.08;19.92;;;16.20;99.90;;;;;;5097484;28;20039;-76
2023/10/02 05:03:49;;;;;;;29.85;20.00;;;16.20;99.90;;;;;;5089598;28;20051;-76
2023/10/02 05:06:39;;;;;;;28.23;20.38;;;16.20;99.90;;;;;;5072291;28;20131;-76
2023/10/02 05:11:26;;;;;;;27.27;19.88;;;16.20;99.90;;;;;;5093887;28;20060;-76
2023/10/02 05:16:29;;;;;;;30.13;20.33;;;16.20;99.90;;;;;;5089362;28;20399;-76
2023/10/02 05:18:56;;;;;;;28.33;19.98;;;16.10;99.90;;;;;;5100841;28;20051;-75
2023/10/02 05:21:35;;;;;;;31.17;20.10;;;16.10;99.90;;;;;;5091256;28;20047;-76
2023/10/02 05:24:06;;;;;;;29.85;18.85;;;16.10;99.90;;;;;;5074442;28;20483;-76
2023/10/02 05:26:44;;;;;;;25.85;18.83;;;16.10;99.90;;;;;;5102138;28;20143;-76
2023/10/02 05:29:17;;;;;;;26.20;19.15;;;16.10;99.90;;;;;;5092113;28;20047;-76
2023/10/02 05:31:45;;;;;;;28.77;19.48;;;16.10;99.90;;;;;;5070625;28;20089;-76
2023/10/02 05:34:21;;;;;;;;;;;16.10;99.90;;;;;;5077318;28;20127;-76
2023/10/02 05:39:39;;;;;;;27.25;18.83;;;16.00;99.90;;;;;;5094683;28;20042;-76
2023/10/02 05:42:14;;;;;;;28.50;18.92;;;16.00;99.90;;;;;;5073726;28;20044;-76
2023/10/02 05:44:42;;;;;;;26.80;19.67;;;16.00;99.90;;;;;;5070363;28;20138;-76
2023/10/02 05:47:08;;;;;;;27.95;18.48;;;16.00;99.90;;;;;;5071214;28;20047;-76
2023/10/02 05:49:48;;;;;;;29.40;19.70;;;16.00;99.90;;;;;;5072846;28;20048;-76
2023/10/02 05:52:23;;;;;;;28.20;19.83;;;16.00;99.90;;;;;;5105520;28;20099;-75
2023/10/02 05:54:54;;;;;;;28.30;19.00;;;16.00;99.90;;;;;;5077252;28;20056;-76
2023/10/02 05:57:20;;;;;;;28.70;19.42;;;16.00;99.90;;;;;;5079865;28;20598;-76
2023/10/02 05:59:48;;;;;;;27.00;19.27;;;16.00;99.90;;;;;;5086530;28;20055;-76
2023/10/02 06:02:22;;;;;;;27.10;19.02;;;16.00;99.90;;;;;;5081755;28;20387;-76
2023/10/02 06:04:53;;;;;;;26.30;18.65;;;16.10;99.90;;;;;;5094407;28;20082;-76
2023/10/02 06:10:08;;;;;;;28.15;18.27;;;16.10;99.90;;;;;;5077001;28;20130;-76
2023/10/02 06:12:35;;;;;;;25.50;17.88;;;16.10;99.90;;;;;;5078013;28;20040;-74
2023/10/02 06:15:09;;;;;;;27.38;18.10;;;16.10;99.90;;;;;;5076921;28;20097;-76
2023/10/02 06:17:35;;;;;;;27.88;19.08;;;16.10;99.90;;;;;;5089039;28;20100;-77
2023/10/02 06:20:01;;;;;;;28.17;18.77;;;16.20;99.90;;;;;;5071986;28;20059;-76
2023/10/02 06:22:27;;;;;;;26.38;18.05;;;16.20;99.90;;;;;;5076439;28;20419;-76
2023/10/02 06:24:53;;;;;;;26.27;18.20;;;16.20;99.90;;;;;;5068960;28;20475;-76
2023/10/02 06:27:22;;;;;;;29.65;19.15;;;16.20;99.90;;;;;;5074107;28;20529;-75
2023/10/02 06:29:49;;;;;;;27.67;18.95;;;16.20;99.90;;;;;;5077572;28;20079;-75
2023/10/02 06:32:23;;;;;;;24.98;18.30;;;16.20;99.90;;;;;;5071895;28;20513;-75
2023/10/02 06:34:50;;;;;;;27.90;18.00;;;16.20;99.90;;;;;;5065439;28;20059;-76
2023/10/02 06:37:19;;;;;;;28.55;18.30;;;16.30;99.90;;;;;;5090955;28;20077;-75
2023/10/02 06:40:06;;;;;;;26.83;18.65;;;16.30;99.90;;;;;;5100527;28;20458;-75
2023/10/02 06:42:32;;;;;;;29.40;19.20;;;16.30;99.90;;;;;;5072052;28;20047;-75
2023/10/02 06:45:01;;;;;;;27.40;17.73;;;16.40;99.90;;;;;;5067300;28;20032;-76
2023/10/02 06:47:29;;;;;;;28.63;17.75;;;16.40;99.90;;;;;;5071188;28;20075;-75
2023/10/02 06:50:23;;;;;;;29.08;18.20;;;16.50;99.90;;;;;;5073447;28;20052;-75
2023/10/02 06:52:49;;;;;;;27.25;18.00;;;16.50;99.90;;;;;;5070437;28;20079;-75
2023/10/02 06:55:17;;;;;;;28.98;18.88;;;16.60;99.90;;;;;;5078815;28;20133;-76
2023/10/02 06:57:49;;;;;;;28.50;18.13;;;16.60;99.90;;;;;;5075218;28;20157;-76
2023/10/02 07:00:19;;;;;;;29.63;17.63;;;16.70;99.90;;;;;;5072738;28;20050;-75
2023/10/02 07:02:57;;;;;;;24.88;16.92;;;16.80;99.90;;;;;;5072506;28;20048;-75
2023/10/02 07:05:32;;;;;;;28.48;17.27;;;16.80;99.90;;;;;;5082161;28;20502;-75
2023/10/02 07:08:22;;;;;;;25.33;17.60;;;16.80;99.90;;;;;;5077057;28;20043;-75
2023/10/02 07:10:48;;;;;;;26.55;17.30;;;16.90;99.90;;;;;;5084987;28;20195;-75
2023/10/02 07:13:23;;;;;;;27.35;18.13;;;16.90;99.90;;;;;;5074949;28;20062;-74
2023/10/02 07:15:57;;;;;;;28.83;17.70;;;17.00;99.90;;;;;;5073895;28;20059;-74
2023/10/02 07:18:36;;;;;;;24.65;17.08;;;17.00;99.90;;;;;;5080101;28;21100;-74
2023/10/02 07:21:09;;;;;;;28.40;19.45;;;17.10;99.90;;;;;;5075544;28;20041;-76
2023/10/02 07:23:38;;;;;;;27.55;17.85;;;17.20;99.90;;;;;;5068582;28;20665;-73
2023/10/02 07:26:05;;;;;;;25.42;17.58;;;17.20;99.90;;;;;;5068401;28;20044;-73
2023/10/02 07:28:31;;;;;;;24.23;17.27;;;17.30;99.90;;;;;;5063028;28;20105;-72
2023/10/02 07:30:59;;;;;;;25.33;17.77;;;17.30;99.90;;;;;;5073496;28;20056;-71
2023/10/02 07:33:27;;;;;;;26.13;17.85;;;17.40;99.90;;;;;;5080227;28;20430;-73
2023/10/02 07:35:52;;;;;;;26.95;18.58;;;17.40;99.90;;;;;;5068743;28;20044;-72
2023/10/02 07:38:22;;;;;;;24.95;17.70;;;17.50;99.90;;;;;;5079780;28;20403;-71
2023/10/02 07:40:49;;;;;;;28.17;17.73;;;17.50;99.90;;;;;;5074243;28;20503;-71
2023/10/02 07:43:21;;;;;;;25.35;17.02;;;17.60;99.90;;;;;;5069988;28;20169;-71
2023/10/02 07:48:36;;;;;;;27.10;18.10;;;17.60;99.90;;;;;;5073423;28;20071;-70
2023/10/02 07:51:03;;;;;;;26.60;17.75;;;17.60;99.90;;;;;;5075058;28;20123;-70
2023/10/02 07:53:41;;;;;;;26.50;17.38;;;17.70;99.90;;;;;;5068092;28;20438;-73
2023/10/02 07:56:14;;;;;;;25.42;16.30;;;17.70;99.90;;;;;;5068613;28;20047;-72
2023/10/02 07:58:54;;;;;;;26.95;17.10;;;17.80;99.90;;;;;;5078341;28;20044;-78
2023/10/02 08:01:23;;;;;;;24.92;17.15;;;17.80;99.90;;;;;;5066144;28;20075;-75
2023/10/02 08:03:49;;;;;;;27.15;17.50;;;17.90;99.90;;;;;;5078044;28;20075;-77
2023/10/02 08:06:50;;;;;;;25.45;17.63;;;18.00;99.90;;;;;;5077773;28;20032;-74
2023/10/02 08:11:54;;;;;;;27.52;17.52;;;18.00;99.90;;;;;;5078956;28;20068;-77
2023/10/02 08:14:35;;;;;;;26.42;18.15;;;18.00;99.90;;;;;;5067565;28;20055;-73
2023/10/02 08:20:31;;;;;;;27.85;17.98;;;18.10;99.90;;;;;;5065267;28;20048;-72
2023/10/02 08:22:58;;;;;;;27.83;18.58;;;18.10;99.90;;;;;;5060762;28;20536;-72
2023/10/02 08:25:23;;;;;;;26.27;17.98;;;18.10;99.90;;;;;;5056848;28;20133;-72
2023/10/02 08:27:57;;;;;;;28.25;18.27;;;18.10;99.90;;;;;;5071524;28;20148;-72
2023/10/02 08:30:36;;;;;;;25.23;17.67;;;18.20;99.90;;;;;;5072535;28;20134;-72
2023/10/02 08:33:06;;;;;;;25.90;17.90;;;18.20;99.90;;;;;;5073395;28;20553;-72
2023/10/02 08:35:46;;;;;;;31.08;18.83;;;18.20;99.90;;;;;;5073873;28;20487;-72
2023/10/02 08:38:25;;;;;;;27.83;18.75;;;18.30;99.90;;;;;;5076693;28;20091;-72
2023/10/02 08:40:58;;;;;;;26.83;17.48;;;18.30;99.90;;;;;;5074594;28;20471;-72
2023/10/02 08:43:28;;;;;;;26.75;18.35;;;18.30;99.90;;;;;;5080791;28;20041;-72
2023/10/02 08:45:54;;;;;;;29.40;18.42;;;18.40;99.90;;;;;;5080802;28;20037;-72
2023/10/02 08:48:21;;;;;;;30.60;18.53;;;18.40;99.90;;;;;;5085672;28;20136;-72
2023/10/02 08:50:50;;;;;;;27.35;19.10;;;18.50;99.90;;;;;;5070991;28;20044;-73
2023/10/02 08:53:23;;;;;;;29.30;18.60;;;18.50;99.90;;;;;;5072607;28;20189;-72
2023/10/02 08:56:23;;;;;;;28.27;19.63;;;18.60;99.90;;;;;;5071662;28;20123;-76
2023/10/02 08:59:15;;;;;;;29.45;19.23;;;18.70;99.90;;;;;;5071327;28;20559;-75
2023/10/02 09:01:35;;;;;;;26.87;18.27;;;18.80;99.90;;;;;;5076776;28;20056;-75
2023/10/02 09:04:22;;;;;;;28.55;18.58;;;18.90;99.90;;;;;;5076943;28;20052;-75
2023/10/02 09:06:49;;;;;;;26.63;17.92;;;19.00;99.90;;;;;;5072949;28;20051;-76
2023/10/02 09:11:53;;;;;;;29.58;19.35;;;19.10;99.90;;;;;;5071629;28;20513;-77
2023/10/02 09:14:22;;;;;;;29.17;19.95;;;19.10;99.90;;;;;;5072577;28;20048;-73
2023/10/02 09:19:39;;;;;;;30.70;19.67;;;19.20;99.90;;;;;;5071587;28;20062;-73
2023/10/02 09:22:10;;;;;;;29.42;20.30;;;19.20;99.90;;;;;;5071143;28;20519;-72
2023/10/02 09:24:55;;;;;;;29.48;20.25;;;19.30;99.90;;;;;;5084496;28;20064;-73
2023/10/02 09:27:27;;;;;;;30.95;20.20;;;19.30;99.90;;;;;;5069698;28;20048;-72
2023/10/02 09:30:19;;;;;;;30.30;20.58;;;19.30;99.90;;;;;;5080694;28;20563;-74
2023/10/02 09:32:49;;;;;;;30.77;18.85;;;19.40;99.90;;;;;;5067301;28;20052;-79
2023/10/02 09:35:25;;;;;;;29.38;20.17;;;19.40;99.90;;;;;;5074268;28;20040;-73
2023/10/02 09:38:04;;;;;;;27.60;19.27;;;19.50;99.90;;;;;;5073559;28;20121;-76
2023/10/02 09:43:24;;;;;;;30.38;19.90;;;19.60;99.90;;;;;;5074944;28;20123;-74
2023/10/02 09:46:00;;;;;;;31.48;21.17;;;19.60;99.90;;;;;;5056060;28;20051;-74
2023/10/02 09:48:53;;;;;;;30.88;20.90;;;19.70;99.90;;;;;;5071646;28;20048;-74
2023/10/02 09:51:30;;;;;;;30.80;20.40;;;19.70;99.90;;;;;;5070818;28;20082;-72
2023/10/02 09:54:17;;;;;;;28.08;19.63;;;19.70;99.90;;;;;;5068722;28;20094;-73
2023/10/02 09:56:53;;;;;;;31.95;20.77;;;19.70;99.90;;;;;;5071196;28;20076;-74
2023/10/02 09:59:23;;;;;;;32.05;21.15;;;19.70;99.90;;;;;;5070518;28;20059;-70
2023/10/02 10:02:07;;;;;;;32.70;22.85;;;19.70;99.90;;;;;;5070257;28;20072;-70
2023/10/02 10:05:00;;;;;;;33.47;22.30;;;19.80;99.90;;;;;;5070145;28;20445;-70
2023/10/02 10:07:52;;;;;;;33.13;21.55;;;19.80;99.90;;;;;;5077360;28;20044;-70
2023/10/02 10:10:49;;;;;;;33.13;22.67;;;19.90;99.90;;;;;;5080341;28;20045;-72
2023/10/02 10:13:36;;;;;;;35.13;22.60;;;20.10;99.90;;;;;;5093834;28;20066;-72
2023/10/02 10:16:20;;;;;;;34.15;23.17;;;20.20;99.90;;;;;;5055031;28;20049;-74
2023/10/02 10:21:58;;;;;;;35.20;22.85;;;20.30;99.90;;;;;;5070244;28;20107;-72
2023/10/02 10:24:56;;;;;;;35.47;23.00;;;20.30;99.90;;;;;;5066655;28;20043;-70
2023/10/02 10:27:40;;;;;;;36.85;23.55;;;20.30;99.90;;;;;;5064977;28;20048;-72
2023/10/02 10:30:33;;;;;;;33.38;22.77;;;20.30;99.90;;;;;;5069278;28;20468;-71
2023/10/02 10:35:55;;;;;;;34.25;23.30;;;20.30;99.90;;;;;;5068245;28;20067;-75
2023/10/02 10:38:36;;;;;;;32.65;22.08;;;20.40;99.90;;;;;;5071118;28;20047;-75
2023/10/02 10:41:30;;;;;;;32.30;21.73;;;20.40;99.90;;;;;;5071046;28;20036;-71
2023/10/02 10:43:56;;;;;;;32.30;20.98;;;20.40;99.90;;;;;;5071400;28;20101;-71
2023/10/02 10:46:31;;;;;;;33.27;21.80;;;20.50;99.90;;;;;;5070300;28;20084;-71
2023/10/02 10:49:15;;;;;;;31.95;20.98;;;20.50;99.90;;;;;;5069225;28;20315;-71
2023/10/02 10:51:42;;;;;;;32.40;22.33;;;20.50;99.90;;;;;;5069358;28;20040;-70
2023/10/02 10:54:19;;;;;;;29.58;20.05;;;20.60;99.90;;;;;;5069986;28;20040;-70
2023/10/02 10:56:56;;;;;;;31.35;21.10;;;20.70;99.90;;;;;;5072820;28;20104;-70
2023/10/02 10:59:32;;;;;;;30.60;21.27;;;20.70;99.90;;;;;;5071792;28;20032;-71
2023/10/02 11:02:15;;;;;;;31.33;20.98;;;20.80;99.90;;;;;;5070301;28;20052;-75
2023/10/02 11:04:51;;;;;;;31.27;21.33;;;20.80;99.90;;;;;;5068930;28;20133;-78
2023/10/02 11:07:25;;;;;;;32.45;22.40;;;20.90;99.90;;;;;;5076365;28;20036;-77
2023/10/02 11:10:19;;;;;;;29.15;19.55;;;20.90;99.90;;;;;;5074743;28;20040;-74
2023/10/02 11:12:56;;;;;;;28.38;17.90;;;20.90;99.90;;;;;;5071515;28;20121;-75
2023/10/02 11:18:18;;;;;;;27.37;17.63;;;21.10;99.90;;;;;;5070470;28;20052;-75
2023/10/02 11:20:49;;;;;;;26.63;17.48;;;21.20;99.90;;;;;;5071678;28;20052;-75
2023/10/02 11:23:40;;;;;;;29.63;18.95;;;21.30;99.90;;;;;;5075113;28;20040;-75
2023/10/02 11:26:21;;;;;;;29.23;18.60;;;21.40;99.90;;;;;;5070131;28;20169;-75
2023/10/02 11:28:51;;;;;;;30.23;18.60;;;21.50;99.90;;;;;;5071323;28;20118;-75
2023/10/02 11:31:29;;;;;;;27.13;17.90;;;21.60;99.90;;;;;;5087839;28;20490;-75
2023/10/02 11:34:08;;;;;;;26.67;17.83;;;21.70;99.90;;;;;;5076578;28;20040;-75
2023/10/02 11:36:39;;;;;;;28.80;17.42;;;21.80;99.90;;;;;;5091529;28;20403;-75
2023/10/02 11:39:27;;;;;;;25.23;16.13;;;21.90;99.90;;;;;;5092498;28;20111;-74
2023/10/02 11:41:53;;;;;;;27.35;17.73;;;21.90;99.90;;;;;;5076117;28;20402;-75
2023/10/02 11:44:18;;;;;;;26.23;17.63;;;21.90;99.90;;;;;;5071568;28;20032;-75
2023/10/02 11:46:44;;;;;;;27.08;17.33;;;21.90;99.90;;;;;;5069978;28;20052;-75
2023/10/02 11:49:12;;;;;;;23.48;16.48;;;21.90;99.90;;;;;;5102097;28;20046;-75
2023/10/02 11:51:39;;;;;;;26.90;17.15;;;21.90;99.90;;;;;;5070052;28;20040;-75
2023/10/02 11:54:13;;;;;;;25.83;16.60;;;21.90;99.90;;;;;;5072845;28;20436;-75
2023/10/02 11:56:39;;;;;;;23.75;15.55;;;21.80;99.90;;;;;;5093941;28;20040;-75
2023/10/02 11:59:06;;;;;;;24.83;16.50;;;21.80;99.90;;;;;;5072007;28;20044;-75
2023/10/02 12:01:32;;;;;;;24.67;16.35;;;21.90;99.90;;;;;;5082272;28;20119;-79
2023/10/02 12:03:58;;;;;;;29.35;17.38;;;21.90;99.90;;;;;;5073615;28;20135;-79
2023/10/02 12:06:25;;;;;;;26.05;16.95;;;21.90;99.90;;;;;;5073855;28;20044;-79
2023/10/02 12:08:50;;;;;;;;;;;21.90;99.90;;;;;;5073219;28;20507;-78
2023/10/02 12:11:16;;;;;;;23.07;15.93;;;21.90;99.90;;;;;;5092584;28;19974;-78
2023/10/02 12:13:44;;;;;;;24.05;16.58;;;21.90;99.90;;;;;;5103922;28;20050;-78
2023/10/02 12:16:11;;;;;;;22.50;15.82;;;21.90;99.90;;;;;;5075856;28;20059;-78
2023/10/02 12:18:43;;;;;;;23.67;16.63;;;21.90;99.90;;;;;;5094769;28;20430;-78
2023/10/02 12:21:11;;;;;;;24.90;16.45;;;21.90;99.90;;;;;;5074064;28;20180;-78
2023/10/02 12:23:39;;;;;;;22.83;15.70;;;21.90;99.90;;;;;;5073916;28;20040;-78
2023/10/02 12:26:12;;;;;;;27.60;16.58;;;21.80;99.90;;;;;;5078630;28;20040;-78
2023/10/02 12:28:38;;;;;;;23.35;15.43;;;21.80;99.90;;;;;;5086717;28;20096;-78
2023/10/02 12:31:13;;;;;;;26.15;15.57;;;21.80;99.90;;;;;;5091373;28;20210;-78
2023/10/02 12:33:41;;;;;;;22.35;15.30;;;21.80;99.90;;;;;;5102661;28;20045;-78
2023/10/02 12:36:18;;;;;;;22.80;15.13;;;21.80;99.90;;;;;;5069547;28;20066;-75
2023/10/02 12:38:47;;;;;;;25.30;14.95;;;21.90;99.90;;;;;;5075536;28;20127;-73
2023/10/02 12:41:19;;;;;;;21.33;14.77;;;21.90;99.90;;;;;;5074947;28;20039;-77
2023/10/02 12:43:47;;;;;;;23.77;14.68;;;21.90;99.90;;;;;;5078154;28;20084;-76
2023/10/02 12:46:17;;;;;;;19.55;13.60;;;21.90;99.90;;;;;;5081969;28;20067;-76
2023/10/02 12:48:47;;;;;;;21.80;13.65;;;22.00;99.90;;;;;;5085572;28;20036;-75
2023/10/02 12:51:14;;;;;;;20.77;14.10;;;22.00;99.90;;;;;;5078017;28;20382;-76
2023/10/02 12:53:40;;;;;;;22.67;14.18;;;22.00;99.90;;;;;;5100853;28;20028;-76
2023/10/02 12:56:06;;;;;;;23.80;14.50;;;22.10;99.90;;;;;;5074711;28;20094;-77
2023/10/02 12:58:38;;;;;;;20.33;14.73;;;22.20;99.90;;;;;;5075307;28;20052;-75
2023/10/02 13:01:03;;;;;;;20.55;14.05;;;22.20;99.90;;;;;;5093061;28;20080;-75
2023/10/02 13:03:32;;;;;;;23.55;14.25;;;22.30;99.90;;;;;;5072255;28;20083;-76
2023/10/02 13:06:01;;;;;;;25.90;14.43;;;22.30;99.90;;;;;;5073026;28;20032;-76
2023/10/02 13:08:27;;;;;;;21.00;13.88;;;22.30;99.90;;;;;;5091051;28;20470;-75
2023/10/02 13:10:53;;;;;;;22.27;14.35;;;22.30;99.90;;;;;;5091279;28;20123;-75
2023/10/02 13:13:20;;;;;;;21.80;13.82;;;22.30;99.90;;;;;;5072956;28;20487;-75
2023/10/02 13:15:48;;;;;;;22.40;14.82;;;22.30;99.90;;;;;;5071981;28;20044;-75
2023/10/02 13:18:15;;;;;;;23.80;14.35;;;22.30;99.90;;;;;;5090701;28;20117;-76
2023/10/02 13:20:43;;;;;;;27.00;17.08;;;22.30;99.90;;;;;;5075873;28;20048;-75
2023/10/02 13:23:09;;;;;;;24.25;15.98;;;22.30;99.90;;;;;;5083402;28;20047;-75
2023/10/02 13:25:35;;;;;;;25.83;16.45;;;22.30;99.90;;;;;;5081617;28;20062;-75
2023/10/02 13:28:02;;;;;;;26.33;16.35;;;22.30;99.90;;;;;;5070277;28;20056;-76
2023/10/02 13:30:30;;;;;;;27.45;17.15;;;22.30;99.90;;;;;;5093716;28;20046;-75
2023/10/02 13:32:56;;;;;;;27.38;17.45;;;22.30;99.90;;;;;;5071873;28;20126;-75
2023/10/02 13:35:23;;;;;;;28.40;17.25;;;22.30;99.90;;;;;;5072534;28;20090;-75
2023/10/02 13:37:52;;;;;;;27.55;17.38;;;22.40;99.90;;;;;;5080350;28;20051;-76
2023/10/02 13:40:18;;;;;;;25.98;16.67;;;22.40;99.90;;;;;;5071853;28;20054;-76
2023/10/02 13:42:49;;;;;;;24.88;15.82;;;22.40;99.90;;;;;;5072696;28;20127;-77
2023/10/02 13:45:19;;;;;;;22.88;15.73;;;22.40;99.90;;;;;;5076171;28;20044;-78
2023/10/02 13:47:46;;;;;;;23.80;16.88;;;22.50;99.90;;;;;;5092362;28;20409;-77
2023/10/02 13:50:13;;;;;;;26.88;16.80;;;22.50;99.90;;;;;;5075112;28;20479;-79
2023/10/02 13:52:40;;;;;;;29.30;16.83;;;22.50;99.90;;;;;;5070836;28;20068;-78
2023/10/02 13:55:26;;;;;;;25.02;16.20;;;22.50;99.90;;;;;;5102337;28;20501;-79